createdAt,value
2023-03-30T00:01:22.476Z,7.60
2023-03-30T00:03:59.428Z,7.60
2023-03-30T00:06:37.165Z,7.60
2023-03-30T00:09:17.013Z,7.60
2023-03-30T00:11:52.844Z,7.60
2023-03-30T00:14:30.425Z,7.50
2023-03-30T00:17:07.310Z,7.50
2023-03-30T00:19:41.955Z,7.50
2023-03-30T00:22:26.347Z,7.40
2023-03-30T00:25:12.044Z,7.50
2023-03-30T00:27:47.227Z,7.40
2023-03-30T00:30:24.554Z,7.40
2023-03-30T00:33:01.805Z,7.30
2023-03-30T00:35:40.104Z,7.30
2023-03-30T00:38:21.591Z,7.40
2023-03-30T00:41:00.814Z,7.40
2023-03-30T00:43:36.957Z,7.40
2023-03-30T00:46:12.075Z,7.30
2023-03-30T00:48:50.070Z,7.30
2023-03-30T00:51:27.633Z,7.30
2023-03-30T00:54:06.088Z,7.30
2023-03-30T00:56:43.544Z,7.30
2023-03-30T00:59:19.738Z,7.30
2023-03-30T01:01:55.603Z,7.30
2023-03-30T01:04:32.699Z,7.30
2023-03-30T01:07:13.548Z,7.30
2023-03-30T01:09:49.426Z,7.30
2023-03-30T01:12:30.217Z,7.30
2023-03-30T01:15:05.799Z,7.30
2023-03-30T01:17:47.363Z,7.30
2023-03-30T01:20:43.824Z,7.30
2023-03-30T01:23:43.754Z,7.20
2023-03-30T01:26:49.472Z,7.20
2023-03-30T01:29:47.327Z,7.20
2023-03-30T01:32:55.912Z,7.20
2023-03-30T01:35:41.227Z,7.10
2023-03-30T01:38:25.217Z,7.20
2023-03-30T01:41:10.182Z,7.10
2023-03-30T01:43:49.896Z,7.10
2023-03-30T01:46:26.938Z,7.10
2023-03-30T01:49:05.846Z,7.10
2023-03-30T01:51:43.552Z,7.10
2023-03-30T01:54:24.113Z,7.10
2023-03-30T01:57:03.394Z,7.10
2023-03-30T01:59:40.445Z,7.10
2023-03-30T02:02:16.028Z,7.10
2023-03-30T02:04:54.021Z,7.10
2023-03-30T02:07:30.325Z,7.10
2023-03-30T02:10:06.447Z,7.10
2023-03-30T02:12:44.936Z,7.10
2023-03-30T02:15:22.196Z,7.10
2023-03-30T02:17:59.621Z,7.10
2023-03-30T02:20:35.274Z,7.10
2023-03-30T02:23:11.954Z,7.10
2023-03-30T02:25:48.207Z,7.10
2023-03-30T02:28:29.722Z,7.10
2023-03-30T02:31:06.552Z,7.10
2023-03-30T02:33:45.596Z,7.10
2023-03-30T02:36:28.422Z,7.20
2023-03-30T02:39:09.128Z,7.20
2023-03-30T02:41:56.444Z,7.20
2023-03-30T02:44:38.142Z,7.20
2023-03-30T02:47:15.087Z,7.20
2023-03-30T02:49:57.841Z,7.20
2023-03-30T02:52:45.571Z,7.20
2023-03-30T02:55:25.972Z,7.20
2023-03-30T02:58:17.315Z,7.20
2023-03-30T03:01:20.315Z,7.20
2023-03-30T03:04:03.663Z,7.20
2023-03-30T03:06:47.988Z,7.20
2023-03-30T03:09:25.411Z,7.20
2023-03-30T03:12:02.194Z,7.20
2023-03-30T03:14:45.734Z,7.20
2023-03-30T03:17:25.068Z,7.20
2023-03-30T03:20:03.953Z,7.20
2023-03-30T03:22:42.044Z,7.10
2023-03-30T03:25:18.152Z,7.20
2023-03-30T03:28:05.345Z,7.20
2023-03-30T03:30:49.460Z,7.20
2023-03-30T03:33:32.163Z,7.20
2023-03-30T03:36:17.129Z,7.10
2023-03-30T03:38:57.015Z,7.10
2023-03-30T03:41:37.566Z,7.10
2023-03-30T03:44:13.447Z,7.10
2023-03-30T03:46:49.257Z,7.20
2023-03-30T03:49:29.831Z,7.20
2023-03-30T03:52:07.542Z,7.10
2023-03-30T03:54:44.964Z,7.10
2023-03-30T03:57:24.446Z,7.10
2023-03-30T04:00:00.537Z,7.10
2023-03-30T04:02:35.832Z,7.10
2023-03-30T04:05:16.546Z,7.10
2023-03-30T04:07:54.386Z,7.10
2023-03-30T04:10:32.902Z,7.00
2023-03-30T04:13:35.943Z,7.10
2023-03-30T04:16:12.930Z,7.10
2023-03-30T04:18:54.195Z,7.10
2023-03-30T04:21:47.492Z,7.10
2023-03-30T04:24:36.522Z,7.10
2023-03-30T04:27:50.715Z,7.20
2023-03-30T04:30:51.409Z,7.20
2023-03-30T04:33:53.575Z,7.20
2023-03-30T04:37:04.538Z,7.20
2023-03-30T04:39:44.959Z,7.20
2023-03-30T04:42:54.972Z,7.20
2023-03-30T04:46:02.308Z,7.20
2023-03-30T04:48:49.930Z,7.20
2023-03-30T04:51:25.917Z,7.20
2023-03-30T04:54:02.712Z,7.20
2023-03-30T04:56:51.109Z,7.20
2023-03-30T04:59:50.088Z,7.20
2023-03-30T05:02:53.033Z,7.20
2023-03-30T05:05:41.574Z,7.20
2023-03-30T05:08:46.874Z,7.20
2023-03-30T05:11:44.311Z,7.20
2023-03-30T05:14:52.585Z,7.20
2023-03-30T05:17:28.651Z,7.10
2023-03-30T05:20:23.215Z,7.10
2023-03-30T05:23:24.999Z,7.20
2023-03-30T05:26:00.129Z,7.20
2023-03-30T05:28:48.111Z,7.20
2023-03-30T05:31:35.766Z,7.20
2023-03-30T05:34:32.816Z,7.20
2023-03-30T05:37:19.090Z,7.20
2023-03-30T05:40:24.630Z,7.30
2023-03-30T05:43:18.202Z,7.30
2023-03-30T05:46:23.478Z,7.30
2023-03-30T05:49:29.476Z,7.40
2023-03-30T05:52:17.386Z,7.40
2023-03-30T05:55:21.364Z,7.50
2023-03-30T05:58:18.384Z,7.60
2023-03-30T06:01:15.870Z,7.70
2023-03-30T06:03:55.632Z,7.80
2023-03-30T06:06:34.759Z,7.90
2023-03-30T06:09:10.964Z,8.00
2023-03-30T06:11:47.676Z,8.00
2023-03-30T06:14:30.245Z,8.00
2023-03-30T06:17:26.367Z,8.00
2023-03-30T06:20:08.773Z,8.00
2023-03-30T06:22:48.325Z,8.00
2023-03-30T06:25:27.927Z,8.10
2023-03-30T06:28:04.751Z,8.10
2023-03-30T06:30:40.686Z,8.20
2023-03-30T06:33:20.120Z,8.10
2023-03-30T06:36:03.539Z,8.20
2023-03-30T06:38:43.915Z,8.20
2023-03-30T06:41:19.736Z,8.30
2023-03-30T06:43:57.044Z,8.30
2023-03-30T06:46:40.203Z,8.30
2023-03-30T06:49:18.968Z,8.30
2023-03-30T06:52:15.360Z,8.40
2023-03-30T06:54:54.962Z,8.40
2023-03-30T06:57:31.138Z,8.50
2023-03-30T07:00:13.920Z,8.60
2023-03-30T07:02:49.653Z,8.70
2023-03-30T07:05:35.001Z,8.80
2023-03-30T07:08:23.837Z,8.80
2023-03-30T07:11:05.914Z,8.90
2023-03-30T07:13:44.102Z,9.10
2023-03-30T07:16:19.693Z,9.20
2023-03-30T07:18:57.691Z,9.40
2023-03-30T07:21:33.231Z,9.50
2023-03-30T07:24:09.444Z,9.70
2023-03-30T07:26:49.367Z,9.90
2023-03-30T07:29:27.504Z,10.20
2023-03-30T07:32:04.587Z,10.40
2023-03-30T07:34:40.877Z,10.50
2023-03-30T07:37:20.567Z,10.50
2023-03-30T07:39:57.760Z,10.60
2023-03-30T07:42:35.965Z,10.90
2023-03-30T07:45:16.498Z,11.10
2023-03-30T07:47:55.044Z,11.40
2023-03-30T07:50:31.488Z,11.70
2023-03-30T07:53:13.808Z,12.00
2023-03-30T07:55:53.473Z,12.30
2023-03-30T07:58:42.000Z,12.60
2023-03-30T08:01:18.756Z,12.60
2023-03-30T08:04:14.866Z,12.70
2023-03-30T08:06:50.507Z,12.90
2023-03-30T08:09:26.727Z,13.30
2023-03-30T08:12:02.145Z,13.70
2023-03-30T08:14:40.338Z,14.10
2023-03-30T08:17:16.797Z,14.50
2023-03-30T08:19:55.406Z,14.80
2023-03-30T08:22:30.911Z,14.80
2023-03-30T08:25:06.050Z,14.70
2023-03-30T08:27:41.728Z,14.60
2023-03-30T08:30:20.925Z,14.50
2023-03-30T08:32:58.746Z,14.40
2023-03-30T08:35:34.091Z,14.30
2023-03-30T08:38:10.565Z,14.20
2023-03-30T08:40:46.744Z,14.10
2023-03-30T08:43:37.193Z,14.00
2023-03-30T08:46:31.298Z,13.90
2023-03-30T08:49:06.779Z,13.70
2023-03-30T08:51:42.875Z,13.70
2023-03-30T08:54:19.978Z,13.90
2023-03-30T08:57:01.211Z,14.20
2023-03-30T08:59:40.050Z,14.50
2023-03-30T09:02:25.497Z,14.70
2023-03-30T09:05:02.317Z,15.00
2023-03-30T09:07:40.791Z,15.30
2023-03-30T09:10:20.180Z,15.60
2023-03-30T09:12:55.380Z,15.60
2023-03-30T09:15:32.501Z,15.40
2023-03-30T09:18:14.725Z,15.20
2023-03-30T09:20:51.433Z,15.00
2023-03-30T09:23:27.097Z,14.90
2023-03-30T09:26:06.892Z,15.10
2023-03-30T09:28:49.652Z,15.30
2023-03-30T09:31:28.973Z,15.60
2023-03-30T09:34:11.195Z,15.90
2023-03-30T09:36:46.721Z,16.20
2023-03-30T09:39:22.444Z,16.60
2023-03-30T09:42:08.055Z,17.10
2023-03-30T09:44:47.388Z,17.30
2023-03-30T09:47:27.763Z,17.50
2023-03-30T09:50:06.507Z,17.80
2023-03-30T09:52:42.964Z,17.90
2023-03-30T09:55:28.706Z,17.90
2023-03-30T09:58:21.610Z,17.90
2023-03-30T10:00:55.563Z,18.00
2023-03-30T10:03:33.279Z,18.00
2023-03-30T10:06:13.476Z,18.10
2023-03-30T10:08:55.404Z,18.10
2023-03-30T10:11:37.510Z,18.20
2023-03-30T10:14:27.622Z,18.40
2023-03-30T10:17:09.625Z,18.50
2023-03-30T10:19:49.455Z,18.70
2023-03-30T10:22:31.750Z,18.90
2023-03-30T10:25:12.088Z,19.10
2023-03-30T10:27:53.812Z,19.10
2023-03-30T10:30:29.796Z,19.20
2023-03-30T10:33:08.779Z,19.10
2023-03-30T10:35:44.465Z,19.00
2023-03-30T10:38:22.661Z,18.80
2023-03-30T10:41:03.021Z,18.70
2023-03-30T10:43:39.458Z,18.80
2023-03-30T10:46:19.367Z,18.60
2023-03-30T10:49:04.807Z,18.40
2023-03-30T10:51:44.488Z,18.40
2023-03-30T10:54:26.562Z,18.20
2023-03-30T10:57:05.056Z,18.10
2023-03-30T11:00:04.391Z,17.90
2023-03-30T11:02:47.879Z,17.80
2023-03-30T11:05:24.250Z,17.60
2023-03-30T11:08:00.755Z,17.60
2023-03-30T11:10:43.598Z,17.50
2023-03-30T11:13:21.929Z,17.40
2023-03-30T11:15:59.049Z,17.40
2023-03-30T11:18:37.786Z,17.30
2023-03-30T11:21:15.159Z,17.20
2023-03-30T11:23:56.622Z,17.20
2023-03-30T11:26:39.262Z,17.10
2023-03-30T11:29:24.753Z,17.10
2023-03-30T11:32:15.026Z,17.00
2023-03-30T11:35:05.119Z,16.90
2023-03-30T11:37:43.040Z,17.00
2023-03-30T11:40:23.640Z,16.90
2023-03-30T11:43:03.774Z,16.80
2023-03-30T11:45:47.254Z,16.70
2023-03-30T11:48:44.091Z,16.60
2023-03-30T11:51:21.581Z,16.40
2023-03-30T11:53:58.884Z,16.40
2023-03-30T11:56:38.491Z,16.30
2023-03-30T11:59:19.112Z,16.30
2023-03-30T12:02:04.944Z,16.40
2023-03-30T12:04:44.146Z,16.40
2023-03-30T12:07:24.854Z,16.40
2023-03-30T12:10:04.747Z,16.40
2023-03-30T12:12:47.624Z,16.40
2023-03-30T12:15:36.537Z,16.40
2023-03-30T12:18:19.611Z,16.40
2023-03-30T12:20:51.547Z,16.40
2023-03-30T12:23:33.306Z,16.30
2023-03-30T12:26:13.641Z,16.20
2023-03-30T12:29:20.803Z,16.20
2023-03-30T12:32:10.989Z,16.10
2023-03-30T12:34:46.178Z,16.00
2023-03-30T12:37:22.856Z,15.90
2023-03-30T12:39:59.424Z,15.90
2023-03-30T12:42:46.714Z,15.90
2023-03-30T12:45:36.734Z,15.90
2023-03-30T12:48:32.857Z,15.90
2023-03-30T12:51:15.741Z,15.90
2023-03-30T12:54:19.542Z,15.90
2023-03-30T12:56:58.805Z,15.90
2023-03-30T12:59:48.156Z,15.90
2023-03-30T13:02:22.639Z,15.90
2023-03-30T13:05:03.612Z,15.90
2023-03-30T13:07:47.352Z,15.90
2023-03-30T13:10:39.284Z,16.00
2023-03-30T13:13:26.627Z,16.00
2023-03-30T13:16:03.419Z,16.00
2023-03-30T13:18:43.877Z,16.00
2023-03-30T13:21:39.924Z,16.00
2023-03-30T13:24:14.344Z,16.00
2023-03-30T13:26:51.592Z,16.00
2023-03-30T13:29:26.717Z,16.00
2023-03-30T13:32:21.943Z,15.90
2023-03-30T13:35:08.418Z,15.90
2023-03-30T13:37:54.380Z,15.90
2023-03-30T13:40:43.898Z,15.80
2023-03-30T13:43:27.194Z,15.80
2023-03-30T13:46:15.561Z,15.70
2023-03-30T13:48:59.998Z,15.70
2023-03-30T13:51:36.246Z,15.60
2023-03-30T13:54:18.796Z,15.60
2023-03-30T13:56:56.048Z,15.60
2023-03-30T13:59:32.914Z,15.60
2023-03-30T14:02:08.134Z,15.60
2023-03-30T14:04:45.411Z,15.60
2023-03-30T14:07:21.751Z,15.60
2023-03-30T14:10:17.179Z,15.60
2023-03-30T14:12:53.044Z,15.60
2023-03-30T14:15:28.282Z,15.60
2023-03-30T14:18:05.163Z,15.50
2023-03-30T14:20:48.750Z,15.50
2023-03-30T14:23:27.106Z,15.50
2023-03-30T14:26:08.006Z,15.40
2023-03-30T14:28:44.799Z,15.40
2023-03-30T14:31:21.486Z,15.30
2023-03-30T14:33:56.414Z,15.30
2023-03-30T14:36:31.923Z,15.30
2023-03-30T14:39:08.289Z,15.30
2023-03-30T14:41:47.107Z,15.30
2023-03-30T14:44:23.386Z,15.40
2023-03-30T14:46:59.487Z,15.40
2023-03-30T14:49:37.431Z,15.30
2023-03-30T14:52:12.630Z,15.40
2023-03-30T14:55:04.823Z,15.30
2023-03-30T14:57:45.463Z,15.30
2023-03-30T15:00:25.214Z,15.20
2023-03-30T15:03:01.076Z,15.10
2023-03-30T15:05:36.239Z,15.10
2023-03-30T15:08:16.497Z,15.10
2023-03-30T15:10:55.193Z,15.10
2023-03-30T15:13:35.953Z,15.10
2023-03-30T15:16:13.788Z,15.10
2023-03-30T15:18:51.296Z,15.10
2023-03-30T15:21:31.880Z,15.00
2023-03-30T15:24:09.836Z,15.00
2023-03-30T15:26:49.717Z,15.00
2023-03-30T15:29:28.681Z,15.00
2023-03-30T15:32:11.709Z,15.00
2023-03-30T15:35:05.985Z,15.00
2023-03-30T15:37:42.251Z,14.90
2023-03-30T15:40:38.274Z,14.90
2023-03-30T15:43:20.722Z,14.90
2023-03-30T15:45:59.737Z,14.90
2023-03-30T15:48:42.171Z,14.80
2023-03-30T15:51:22.872Z,14.80
2023-03-30T15:54:02.182Z,14.80
2023-03-30T15:56:38.393Z,14.80
2023-03-30T15:59:16.359Z,14.70
2023-03-30T16:01:58.243Z,14.70
2023-03-30T16:04:31.286Z,14.60
2023-03-30T16:07:08.816Z,14.60
2023-03-30T16:09:44.572Z,14.60
2023-03-30T16:12:22.770Z,14.50
2023-03-30T16:14:58.749Z,14.50
2023-03-30T16:17:37.840Z,14.50
2023-03-30T16:20:19.499Z,14.40
2023-03-30T16:22:57.017Z,14.40
2023-03-30T16:25:44.160Z,14.40
2023-03-30T16:28:22.871Z,14.40
2023-03-30T16:30:58.977Z,14.40
2023-03-30T16:33:39.388Z,14.40
2023-03-30T16:36:16.063Z,14.40
2023-03-30T16:38:52.227Z,14.40
2023-03-30T16:41:28.272Z,14.40
2023-03-30T16:44:04.547Z,14.40
2023-03-30T16:46:42.041Z,14.40
2023-03-30T16:49:24.969Z,14.50
2023-03-30T16:52:01.881Z,14.50
2023-03-30T16:54:40.483Z,14.50
2023-03-30T16:57:21.138Z,14.60
2023-03-30T16:59:57.422Z,14.50
2023-03-30T17:02:32.878Z,14.50
2023-03-30T17:05:12.414Z,14.50
2023-03-30T17:07:49.705Z,14.40
2023-03-30T17:10:28.462Z,14.40
2023-03-30T17:13:04.697Z,14.40
2023-03-30T17:15:41.097Z,14.30
2023-03-30T17:18:17.422Z,14.20
2023-03-30T17:20:57.927Z,14.20
2023-03-30T17:23:34.423Z,14.10
2023-03-30T17:26:13.788Z,14.10
2023-03-30T17:28:50.712Z,14.00
2023-03-30T17:31:26.139Z,14.00
2023-03-30T17:34:01.962Z,13.90
2023-03-30T17:36:39.742Z,13.90
2023-03-30T17:39:16.757Z,13.90
2023-03-30T17:41:52.053Z,13.80
2023-03-30T17:44:28.127Z,13.80
2023-03-30T17:47:03.347Z,13.70
2023-03-30T17:49:38.470Z,13.70
2023-03-30T17:52:16.016Z,13.60
2023-03-30T17:54:54.307Z,13.60
2023-03-30T17:57:31.683Z,13.60
2023-03-30T18:00:11.348Z,13.60
2023-03-30T18:02:47.553Z,13.60
2023-03-30T18:05:23.909Z,13.60
2023-03-30T18:08:03.114Z,13.60
2023-03-30T18:10:40.143Z,13.50
2023-03-30T18:13:17.683Z,13.50
2023-03-30T18:15:55.185Z,13.40
2023-03-30T18:18:31.361Z,13.40
2023-03-30T18:21:07.073Z,13.40
2023-03-30T18:23:48.763Z,13.40
2023-03-30T18:26:25.642Z,13.30
2023-03-30T18:29:01.611Z,13.40
2023-03-30T18:31:37.017Z,13.30
2023-03-30T18:34:12.697Z,13.40
2023-03-30T18:36:49.012Z,13.40
2023-03-30T18:39:28.360Z,13.40
2023-03-30T18:42:03.020Z,13.30
2023-03-30T18:44:39.453Z,13.40
2023-03-30T18:47:15.667Z,13.40
2023-03-30T18:49:54.044Z,13.30
2023-03-30T18:52:34.095Z,13.30
2023-03-30T18:55:07.911Z,13.30
2023-03-30T18:57:47.459Z,13.30
2023-03-30T19:00:25.151Z,13.30
2023-03-30T19:03:03.004Z,13.30
2023-03-30T19:05:40.547Z,13.30
2023-03-30T19:08:18.657Z,13.30
2023-03-30T19:10:55.258Z,13.20
2023-03-30T19:13:36.962Z,13.20
2023-03-30T19:16:14.743Z,13.10
2023-03-30T19:18:51.638Z,13.10
2023-03-30T19:21:27.673Z,13.00
2023-03-30T19:24:03.429Z,13.00
2023-03-30T19:26:40.097Z,13.00
2023-03-30T19:29:23.098Z,12.90
2023-03-30T19:31:59.177Z,12.80
2023-03-30T19:34:34.375Z,12.80
2023-03-30T19:37:10.076Z,12.80
2023-03-30T19:39:44.932Z,12.70
2023-03-30T19:42:21.218Z,12.70
2023-03-30T19:45:03.656Z,12.70
2023-03-30T19:47:42.410Z,12.60
2023-03-30T19:50:16.890Z,12.60
2023-03-30T19:52:54.729Z,12.60
2023-03-30T19:55:31.562Z,12.50
2023-03-30T19:58:06.491Z,12.50
2023-03-30T20:00:49.866Z,12.40
2023-03-30T20:03:27.215Z,12.40
2023-03-30T20:06:02.659Z,12.40
2023-03-30T20:08:41.224Z,12.30
2023-03-30T20:11:16.443Z,12.30
2023-03-30T20:13:54.586Z,12.20
2023-03-30T20:16:35.602Z,12.20
2023-03-30T20:19:28.605Z,12.20
2023-03-30T20:22:04.962Z,12.20
2023-03-30T20:24:42.088Z,12.20
2023-03-30T20:27:20.701Z,12.20
2023-03-30T20:29:57.351Z,12.10
2023-03-30T20:32:37.002Z,12.10
2023-03-30T20:35:13.560Z,12.10
2023-03-30T20:37:50.737Z,12.10
2023-03-30T20:40:27.796Z,12.00
2023-03-30T20:43:04.221Z,12.00
2023-03-30T20:45:46.549Z,12.00
2023-03-30T20:48:34.076Z,11.90
2023-03-30T20:51:09.324Z,11.90
2023-03-30T20:53:45.859Z,11.80
2023-03-30T20:56:22.316Z,11.80
2023-03-30T20:58:57.045Z,11.70
2023-03-30T21:01:32.113Z,11.70
2023-03-30T21:04:12.094Z,11.70
2023-03-30T21:06:50.605Z,11.60
2023-03-30T21:09:27.138Z,11.50
2023-03-30T21:12:03.173Z,11.40
2023-03-30T21:14:38.776Z,11.40
2023-03-30T21:17:13.182Z,11.30
2023-03-30T21:19:53.098Z,11.20
2023-03-30T21:22:30.609Z,11.20
2023-03-30T21:25:06.467Z,11.10
2023-03-30T21:27:42.140Z,11.10
2023-03-30T21:30:19.763Z,11.10
2023-03-30T21:32:57.396Z,11.00
2023-03-30T21:35:36.491Z,11.00
2023-03-30T21:38:13.786Z,11.00
2023-03-30T21:40:59.647Z,11.00
2023-03-30T21:43:39.624Z,10.90
2023-03-30T21:46:17.860Z,10.90
2023-03-30T21:48:55.113Z,10.90
2023-03-30T21:51:36.279Z,10.80
2023-03-30T21:54:12.437Z,10.80
2023-03-30T21:56:49.425Z,10.70
2023-03-30T21:59:25.260Z,10.70
2023-03-30T22:02:02.867Z,10.70
2023-03-30T22:04:40.749Z,10.60
2023-03-30T22:07:19.432Z,10.60
2023-03-30T22:10:00.223Z,10.50
2023-03-30T22:12:37.748Z,10.50
2023-03-30T22:15:15.939Z,10.60
2023-03-30T22:17:52.277Z,10.60
2023-03-30T22:20:29.690Z,10.50
2023-03-30T22:23:08.603Z,10.60
2023-03-30T22:25:45.483Z,10.50
2023-03-30T22:28:20.144Z,10.50
2023-03-30T22:30:58.096Z,10.50
2023-03-30T22:33:35.276Z,10.40
2023-03-30T22:36:19.476Z,10.40
2023-03-30T22:39:00.805Z,10.40
2023-03-30T22:41:41.603Z,10.30
2023-03-30T22:44:18.970Z,10.30
2023-03-30T22:46:54.842Z,10.30
2023-03-30T22:49:34.546Z,10.30
2023-03-30T22:52:09.957Z,10.30
2023-03-30T22:54:49.151Z,10.30
2023-03-30T22:57:25.510Z,10.30
2023-03-30T23:00:01.055Z,10.30
2023-03-30T23:02:39.392Z,10.20
2023-03-30T23:05:15.158Z,10.20
2023-03-30T23:07:51.686Z,10.20
2023-03-30T23:10:34.135Z,10.10
2023-03-30T23:13:09.288Z,10.10
2023-03-30T23:15:49.828Z,10.10
2023-03-30T23:18:25.880Z,10.10
2023-03-30T23:21:08.275Z,10.10
2023-03-30T23:23:44.055Z,10.10
2023-03-30T23:26:23.907Z,10.10
2023-03-30T23:28:59.671Z,10.10
2023-03-30T23:31:35.659Z,10.10
2023-03-30T23:34:22.903Z,10.10
2023-03-30T23:37:00.294Z,10.10
2023-03-30T23:39:36.232Z,10.20
2023-03-30T23:42:15.242Z,10.10
2023-03-30T23:44:52.192Z,10.10
2023-03-30T23:47:27.615Z,10.20
2023-03-30T23:50:05.127Z,10.10
2023-03-30T23:52:42.293Z,10.10
2023-03-30T23:55:19.017Z,10.10
2023-03-30T23:57:57.812Z,10.10
